Estación Meteorológica Peña el Pijo (Robertgarden) [ 09/24/17 17:53:34 CEST ]

Fecha Hora Presion(HPa) Temp (°C) Humedad % Rocio (°C) Viento ( m/s) Direccion Lluvia 1Hora(mm) Lluvia 24H(mm) LLuvia Total(mm)
2017-Sep-03 01:02:01 1014.200 15.7 83 12.8         1457.65
2017-Sep-03 02:02:01 1014.000 15.4 84 12.7         1457.65
2017-Sep-03 03:01:42 1013.500 14.9 86 12.6         1457.65
2017-Sep-03 04:01:39 1012.900 14.3 86 12.0         1457.65
2017-Sep-03 05:01:38 1012.700 13.6 87 11.5         1457.65
2017-Sep-03 06:01:40 1012.300 13.3 88 11.3         1457.65
2017-Sep-03 07:01:36 1012.200 13.3 88 11.3         1457.65
2017-Sep-03 08:01:47 1012.000 12.9 89 11.1         1457.65
2017-Sep-03 09:01:55 1012.000 14.9 90 13.3         1457.65
2017-Sep-03 10:01:56 1011.900 19.4 86 17.0         1457.65
2017-Sep-03 11:02:01 1011.800 25.5 61 17.4         1457.65
2017-Sep-03 12:01:27 1011.800 28.8 46 16.0         1457.65
2017-Sep-03 13:01:38 1011.200 28.0 41 13.5         1457.65
2017-Sep-03 14:01:46 1010.500 29.9 36 13.1         1457.65
2017-Sep-03 15:01:43 1010.000 31.5 33 13.2         1457.65
2017-Sep-03 16:01:46 1009.500 32.4 29 12.0         1457.65
2017-Sep-03 17:01:46 1009.000 33.0 27 11.4         1457.65
2017-Sep-03 18:01:36 1009.000 29.8 32 11.3 0.6 WNW     1457.65
2017-Sep-03 19:01:45 1009.000 27.5 34 10.1         1457.65
2017-Sep-03 20:01:52 1009.000 25.9 39 10.9         1457.65
2017-Sep-03 21:01:51 1009.600 22.3 50 11.4         1457.65
2017-Sep-03 22:01:49 1009.900 19.9 57 11.1         1457.65
2017-Sep-03 23:01:41 1010.100 18.9 61 11.2         1457.65

Temperatura Máxima:33°    Temperatura Mínima:12°
Presión Máxima:1014.200 Hpa    Presión Mínima:1009.000 Hpa


Volver